Time;durP1;ratioP1;P1;durP2;ratioP2;P2;SDS_P1;SDS_P2;PMS_P1;PMS_P2;Temp;Humidity;BMP_temperature;BMP_pressure;BME280_temperature;BME280_humidity;BME280_pressure;Samples;Min_cycle;Max_cycle;Signal;HPM_P1;HPM_P2
2022/04/17 00:01:29;;;;;;;0.90;0.90;;;;;;;6.22;48.23;101760.39;106198;1274;94238;-88
2022/04/17 00:04:59;;;;;;;1.00;1.00;;;;;;;6.19;48.38;101756.84;105773;1274;136490;-87
2022/04/17 00:08:16;;;;;;;0.90;0.90;;;;;;;6.17;48.64;101756.64;106009;1274;98322;-88
2022/04/17 00:11:05;;;;;;;0.90;0.90;;;;;;;6.19;48.58;101755.41;106049;1274;108558;-88
2022/04/17 00:13:54;;;;;;;0.90;0.90;;;;;;;6.13;48.56;101750.92;105926;1274;94120;-88
2022/04/17 00:17:20;;;;;;;0.90;0.90;;;;;;;6.09;48.75;101750.72;105723;1277;137376;-88
2022/04/17 00:20:13;;;;;;;0.90;0.90;;;;;;;6.07;48.69;101749.63;106076;1274;108047;-87
2022/04/17 00:23:44;;;;;;;0.90;0.90;;;;;;;6.04;48.92;101744.81;105679;1274;137497;-89
2022/04/17 00:26:32;;;;;;;1.00;1.00;;;;;;;6.01;49.04;101749.35;105808;1274;108875;-88
2022/04/17 00:29:44;;;;;;;0.90;0.90;;;;;;;5.99;49.11;101751.80;105733;1277;137419;-88
2022/04/17 00:32:34;;;;;;;0.90;0.90;;;;;;;5.92;49.18;101747.95;105933;1274;94737;-90
2022/04/17 00:35:47;;;;;;;1.00;1.00;;;;;;;5.85;49.44;101750.67;105929;1274;137462;-89
2022/04/17 00:38:55;;;;;;;1.00;1.00;;;;;;;5.79;49.65;101746.00;105877;1274;137751;-88
2022/04/17 00:42:13;;;;;;;1.10;1.10;;;;;;;5.67;49.88;101750.75;105753;1274;108860;-87
2022/04/17 00:44:41;;;;;;;1.00;1.00;;;;;;;5.66;49.90;101748.64;106009;1274;94188;-89
2022/04/17 00:47:15;;;;;;;1.00;1.00;;;;;;;5.62;50.07;101747.84;105778;1274;137312;-90
2022/04/17 00:49:46;;;;;;;1.00;1.00;;;;;;;5.61;50.22;101747.84;105868;1274;107358;-90
2022/04/17 00:52:14;;;;;;;0.90;0.90;;;;;;;5.57;50.25;101744.77;106028;1274;137172;-88
2022/04/17 00:55:07;;;;;;;0.90;0.90;;;;;;;5.51;50.26;101744.52;105840;1274;108783;-88
2022/04/17 00:57:40;;;;;;;1.00;1.00;;;;;;;5.39;50.59;101745.36;105753;1274;137964;-90
2022/04/17 01:00:08;;;;;;;1.00;1.00;;;;;;;5.28;50.88;101738.14;105841;1274;94379;-88
2022/04/17 01:02:36;;;;;;;0.90;0.90;;;;;;;5.31;51.08;101734.14;105929;1277;108303;-88
2022/04/17 01:05:06;;;;;;;1.10;1.10;;;;;;;5.35;50.76;101734.19;105695;1274;136305;-90
2022/04/17 01:07:34;;;;;;;1.00;1.00;;;;;;;5.29;50.81;101734.29;105840;1276;108600;-88
2022/04/17 01:10:03;;;;;;;1.00;1.00;;;;;;;5.28;50.85;101737.09;105640;1277;137089;-89
2022/04/17 01:12:31;;;;;;;1.00;1.00;;;;;;;5.27;51.09;101732.48;105817;1276;94618;-88
2022/04/17 01:15:20;;;;;;;1.00;1.00;;;;;;;5.24;50.99;101737.52;105649;1277;138413;-87
2022/04/17 01:17:49;;;;;;;1.00;1.00;;;;;;;5.23;51.01;101731.36;101917;1274;98250;-89
2022/04/17 01:20:18;;;;;;;1.00;1.00;;;;;;;5.18;51.09;101727.23;105767;1274;94749;-89
2022/04/17 01:22:49;;;;;;;1.10;1.10;;;;;;;5.12;51.12;101725.20;105742;1277;137667;-88
2022/04/17 01:28:05;;;;;;;1.10;1.10;;;;;;;5.13;51.25;101718.34;105683;1276;137218;-87
2022/04/17 01:31:22;;;;;;;1.10;1.10;;;;;;;5.09;51.07;101717.22;105965;1274;106788;-89
2022/04/17 01:34:15;;;;;;;1.00;1.00;;;;;;;5.05;51.13;101716.45;105665;1274;138364;-88
2022/04/17 01:37:08;;;;;;;1.00;1.00;;;;;;;4.96;51.31;101712.77;105855;1274;94261;-88
2022/04/17 01:39:37;;;;;;;1.00;1.00;;;;;;;4.93;51.49;101710.95;105873;1274;138672;-89
2022/04/17 01:42:05;;;;;;;1.10;1.10;;;;;;;4.99;51.40;101708.95;105855;1277;97046;-87
2022/04/17 01:44:33;;;;;;;1.10;1.10;;;;;;;5.01;51.48;101708.98;105989;1277;107697;-87
2022/04/17 01:47:02;;;;;;;1.00;1.00;;;;;;;4.98;51.43;101705.39;105833;1276;137561;-87
2022/04/17 01:49:51;;;;;;;1.20;1.20;;;;;;;4.93;51.57;101703.20;105694;1275;94229;-88
2022/04/17 01:52:21;;;;;;;1.10;1.10;;;;;;;4.88;51.63;101702.92;105690;1274;137312;-88
2022/04/17 01:54:52;;;;;;;1.00;1.00;;;;;;;4.86;51.84;101698.85;105854;1275;98540;-90
2022/04/17 01:57:23;;;;;;;1.00;1.00;;;;;;;4.82;51.95;101695.62;105592;1274;137075;-90
2022/04/17 01:59:50;;;;;;;1.10;1.10;;;;;;;4.83;52.13;101695.11;105920;1274;94230;-88
2022/04/17 02:02:20;;;;;;;1.10;1.10;;;;;;;4.81;52.13;101694.20;105825;1274;94229;-87
2022/04/17 02:05:09;;;;;;;1.00;1.00;;;;;;;4.80;52.15;101694.19;105744;1277;137989;-88
2022/04/17 02:07:37;;;;;;;1.00;1.00;;;;;;;4.83;52.20;101693.88;105993;1274;97722;-88
2022/04/17 02:10:08;;;;;;;1.00;1.00;;;;;;;4.95;51.99;101688.09;105669;1277;137431;-91
2022/04/17 02:12:40;;;;;;;1.00;1.00;;;;;;;4.97;52.00;101690.94;105894;1277;94719;-90
2022/04/17 02:15:33;;;;;;;1.00;1.00;;;;;;;4.99;51.96;101688.34;105815;1277;138445;-90
2022/04/17 02:18:01;;;;;;;1.10;1.10;;;;;;;5.03;51.82;101688.95;105988;1274;107396;-89
2022/04/17 02:20:30;;;;;;;1.20;1.20;;;;;;;5.05;51.69;101689.31;105696;1277;97222;-87
2022/04/17 02:23:01;;;;;;;1.10;1.10;;;;;;;5.06;51.84;101691.45;105619;1277;141646;-88
2022/04/17 02:25:30;;;;;;;1.00;1.00;;;;;;;5.08;51.69;101692.90;105760;1275;94385;-88
2022/04/17 02:27:58;;;;;;;1.00;1.00;;;;;;;5.00;51.87;101690.84;105670;1277;137588;-87
2022/04/17 02:30:34;;;;;;;1.10;1.10;;;;;;;4.93;52.07;101693.52;105886;1275;108404;-87
2022/04/17 02:33:03;;;;;;;1.00;1.00;;;;;;;4.90;52.14;101693.46;105820;1274;138251;-88
2022/04/17 02:35:31;;;;;;;1.10;1.10;;;;;;;4.89;52.07;101692.75;105897;1274;107789;-88
2022/04/17 02:37:59;;;;;;;1.20;1.20;;;;;;;4.90;52.16;101692.23;105734;1277;94327;-88
2022/04/17 02:41:07;;;;;;;0.90;0.90;;;;;;;4.88;52.17;101691.85;105631;1277;136889;-88
2022/04/17 02:43:40;;;;;;;1.00;1.00;;;;;;;4.87;52.17;101692.89;105986;1274;106685;-89
2022/04/17 02:49:20;;;;;;;1.10;1.10;;;;;;;4.88;52.37;101693.61;105837;1274;107830;-87
2022/04/17 02:52:11;;;;;;;1.00;1.00;;;;;;;4.88;52.60;101692.02;105783;1275;138529;-87
2022/04/17 02:55:00;;;;;;;1.00;1.00;;;;;;;4.95;52.41;101692.33;105941;1274;94215;-87
2022/04/17 02:57:30;;;;;;;0.90;0.90;;;;;;;4.99;52.26;101688.86;105559;1277;138415;-87
2022/04/17 03:00:06;;;;;;;1.10;1.10;;;;;;;5.05;52.23;101690.04;105671;1276;97058;-90
2022/04/17 03:05:39;;;;;;;1.00;1.00;;;;;;;4.97;52.39;101685.31;105673;1274;137988;-89
2022/04/17 03:08:07;;;;;;;1.10;1.10;;;;;;;4.93;52.53;101681.56;105720;1274;94590;-88
2022/04/17 03:10:37;;;;;;;1.10;1.10;;;;;;;4.93;52.59;101684.02;105755;1274;137945;-87
2022/04/17 03:14:05;;;;;;;1.00;1.00;;;;;;;4.88;52.56;101684.98;105833;1274;99392;-87
2022/04/17 03:16:34;;;;;;;0.90;0.90;;;;;;;4.90;52.78;101684.48;105948;1274;139039;-88
2022/04/17 03:19:22;;;;;;;0.90;0.90;;;;;;;4.92;52.69;101683.82;105843;1274;94290;-88
2022/04/17 03:22:32;;;;;;;1.10;1.10;;;;;;;4.92;52.67;101683.30;105767;1274;138751;-87
2022/04/17 03:25:21;;;;;;;1.00;1.00;;;;;;;4.87;52.79;101687.09;105913;1275;107794;-89
2022/04/17 03:27:50;;;;;;;1.00;1.00;;;;;;;4.81;52.93;101689.09;105731;1274;138027;-87
2022/04/17 03:30:27;;;;;;;1.10;1.10;;;;;;;4.65;53.53;101690.02;106020;1274;106698;-87
2022/04/17 03:32:57;;;;;;;1.00;1.00;;;;;;;4.64;53.77;101690.34;105980;1274;94214;-88
2022/04/17 03:35:30;;;;;;;1.00;1.00;;;;;;;4.74;53.70;101693.17;105784;1272;138328;-88
2022/04/17 03:38:00;;;;;;;1.10;1.10;;;;;;;4.77;53.77;101696.23;105992;1274;107447;-88
2022/04/17 03:41:27;;;;;;;1.00;1.00;;;;;;;4.78;53.89;101698.36;105485;1277;137896;-89
2022/04/17 03:44:58;;;;;;;1.10;1.10;;;;;;;4.89;53.84;101700.66;106053;1274;107769;-89
2022/04/17 03:47:49;;;;;;;1.10;1.10;;;;;;;4.74;54.06;101697.56;105943;1274;136387;-87
2022/04/17 03:50:57;;;;;;;1.00;1.00;;;;;;;4.81;54.17;101697.17;106171;1274;94222;-87
2022/04/17 03:53:25;;;;;;;0.90;0.90;;;;;;;4.92;54.25;101696.30;105856;1274;139058;-89
2022/04/17 03:56:34;;;;;;;0.90;0.90;;;;;;;4.96;54.12;101696.73;105928;1274;99506;-89
2022/04/17 03:59:26;;;;;;;1.00;1.00;;;;;;;4.96;54.07;101694.98;105750;1275;137743;-87
2022/04/17 04:01:56;;;;;;;1.00;1.00;;;;;;;4.99;54.05;101693.44;105919;1274;94190;-90
2022/04/17 04:04:28;;;;;;;1.00;1.00;;;;;;;5.09;53.99;101692.39;105796;1274;138084;-87
2022/04/17 04:06:58;;;;;;;0.90;0.90;;;;;;;5.16;54.03;101698.33;105972;1274;105983;-87
2022/04/17 04:10:09;;;;;;;0.90;0.90;;;;;;;5.16;53.93;101694.09;105712;1274;136982;-87
2022/04/17 04:13:01;;;;;;;1.00;1.00;;;;;;;5.17;53.90;101688.83;105727;1274;107523;-90
2022/04/17 04:15:30;;;;;;;0.90;0.90;;;;;;;5.18;53.98;101690.78;105549;1274;138245;-88
2022/04/17 04:17:58;;;;;;;1.00;1.00;;;;;;;5.21;53.93;101691.54;105987;1274;94649;-88
2022/04/17 04:20:28;;;;;;;0.90;0.90;;;;;;;5.24;54.02;101689.30;105859;1273;107447;-88
2022/04/17 04:23:41;;;;;;;1.00;1.00;;;;;;;5.20;53.91;101686.41;105710;1274;139671;-88
2022/04/17 04:31:16;;;;;;;1.00;1.00;;;;;;;5.21;54.02;101689.77;105958;1274;94301;-87
2022/04/17 04:34:19;;;;;;;0.90;0.90;;;;;;;5.24;54.30;101693.34;105851;1274;138035;-89
2022/04/17 04:36:47;;;;;;;0.90;0.90;;;;;;;5.35;54.31;101692.11;105828;1274;108423;-88
2022/04/17 04:39:16;;;;;;;1.00;1.00;;;;;;;5.41;54.08;101697.66;105893;1274;97339;-87
2022/04/17 04:42:04;;;;;;;0.90;0.90;;;;;;;5.34;54.17;101697.39;105457;1274;137400;-86
2022/04/17 04:46:06;;;;;;;1.10;1.10;;;;;;;5.27;54.41;101691.81;105716;1274;94754;-87
2022/04/17 04:47:42;;;;;;;1.00;1.00;;;;;;;5.23;54.51;101698.79;105478;1275;138420;-87
2022/04/17 04:50:15;;;;;;;0.90;0.90;;;;;;;5.15;54.97;101695.84;105921;1274;107187;-88
2022/04/17 04:52:43;;;;;;;0.90;0.90;;;;;;;5.15;55.15;101697.08;105931;1274;138677;-87
2022/04/17 04:55:14;;;;;;;0.90;0.90;;;;;;;5.05;55.53;101699.53;105730;1274;107703;-88
2022/04/17 04:58:05;;;;;;;1.00;1.00;;;;;;;4.98;55.56;101702.94;105799;1274;94318;-89
2022/04/17 05:00:37;;;;;;;0.90;0.90;;;;;;;4.87;56.02;101705.55;105985;1274;137291;-88
2022/04/17 05:03:08;;;;;;;0.90;0.90;;;;;;;4.81;56.36;101704.58;105873;1274;108204;-89
2022/04/17 05:05:57;;;;;;;1.00;1.00;;;;;;;4.88;56.56;101703.11;105591;1277;138498;-88
2022/04/17 05:08:25;;;;;;;0.90;0.90;;;;;;;4.83;56.79;101703.73;105911;1274;107346;-88
2022/04/17 05:10:58;;;;;;;1.00;1.00;;;;;;;4.92;56.77;101705.31;105727;1274;138131;-88
2022/04/17 05:13:27;;;;;;;1.00;1.00;;;;;;;4.93;56.91;101703.55;106074;1274;94827;-87
2022/04/17 05:16:13;;;;;;;1.00;1.00;;;;;;;4.91;56.94;101705.98;106154;1274;108314;-87
2022/04/17 05:19:24;;;;;;;0.90;0.90;;;;;;;4.98;56.94;101705.75;105970;1274;138030;-87
2022/04/17 05:22:31;;;;;;;0.90;0.90;;;;;;;5.04;56.92;101704.09;105389;1281;138333;-88
2022/04/17 05:25:00;;;;;;;0.90;0.90;;;;;;;5.08;57.11;101700.65;105564;1281;94424;-90
2022/04/17 05:27:28;;;;;;;0.90;0.90;;;;;;;5.12;57.03;101702.13;105398;1281;94493;-88
2022/04/17 05:29:56;;;;;;;0.90;0.90;;;;;;;5.20;56.90;101704.90;105262;1281;138411;-90
2022/04/17 05:32:27;;;;;;;1.00;1.00;;;;;;;5.22;56.86;101706.88;105451;1281;98365;-88
2022/04/17 05:34:54;;;;;;;0.90;0.90;;;;;;;5.22;57.02;101706.34;105512;1281;136625;-88
2022/04/17 05:37:23;;;;;;;0.90;0.90;;;;;;;5.20;57.06;101703.32;105410;1281;94689;-89
2022/04/17 05:39:52;;;;;;;1.00;1.00;;;;;;;5.22;57.11;101706.34;105521;1275;95102;-89
2022/04/17 05:42:59;;;;;;;0.90;0.90;;;;;;;5.24;56.97;101702.16;105772;1274;137113;-88
2022/04/17 05:46:11;;;;;;;0.80;0.80;;;;;;;5.37;56.95;101706.60;106083;1274;98347;-87
2022/04/17 05:49:00;;;;;;;0.90;0.90;;;;;;;5.45;56.74;101694.56;106124;1274;107785;-87
2022/04/17 05:51:28;;;;;;;0.90;0.90;;;;;;;5.59;56.54;101694.42;105956;1274;94312;-88
2022/04/17 05:53:56;;;;;;;0.90;0.90;;;;;;;5.64;56.44;101696.61;106109;1274;138096;-87
2022/04/17 05:56:27;;;;;;;0.90;0.90;;;;;;;5.71;56.18;101700.40;106200;1274;106315;-88
2022/04/17 05:58:57;;;;;;;0.90;0.90;;;;;;;5.76;56.20;101698.36;105787;1274;137567;-87
2022/04/17 06:01:25;;;;;;;0.90;0.90;;;;;;;5.71;56.29;101699.19;105904;1277;106507;-87
2022/04/17 06:03:53;;;;;;;0.90;0.90;;;;;;;5.70;56.49;101699.16;106052;1274;94403;-89
2022/04/17 06:07:25;;;;;;;0.90;0.90;;;;;;;5.78;56.30;101703.86;106028;1274;137471;-87
2022/04/17 06:09:54;;;;;;;0.90;0.90;;;;;;;5.76;56.29;101702.77;106157;1274;106062;-87
2022/04/17 06:12:42;;;;;;;0.90;0.90;;;;;;;5.79;56.57;101702.47;105820;1274;138216;-87
2022/04/17 06:16:11;;;;;;;0.90;0.90;;;;;;;5.88;56.62;101703.84;105796;1274;108219;-87
2022/04/17 06:20:00;;;;;;;0.70;0.70;;;;;;;6.00;56.25;101703.68;105992;1274;137445;-87
2022/04/17 06:23:13;;;;;;;0.80;0.80;;;;;;;6.00;56.12;101708.09;105795;1274;138504;-89
2022/04/17 06:26:06;;;;;;;0.80;0.80;;;;;;;6.06;55.94;101707.98;105925;1274;108381;-87
2022/04/17 06:29:14;;;;;;;0.90;0.90;;;;;;;6.05;56.19;101710.27;105844;1274;138958;-88
2022/04/17 06:31:48;;;;;;;0.70;0.70;;;;;;;6.22;55.85;101708.37;105976;1274;107152;-87
2022/04/17 06:34:18;;;;;;;0.80;0.80;;;;;;;6.35;55.77;101709.75;106203;1274;94196;-89
2022/04/17 06:36:47;;;;;;;0.70;0.70;;;;;;;6.41;55.43;101706.48;106247;1274;136650;-89
2022/04/17 06:39:14;;;;;;;0.80;0.80;;;;;;;6.55;55.41;101709.81;106460;1274;108729;-87
2022/04/17 06:42:06;;;;;;;0.80;0.80;;;;;;;6.70;55.03;101705.94;106516;1273;137899;-86
2022/04/17 06:45:35;;;;;;;0.80;0.80;;;;;;;6.81;54.89;101706.05;106335;1274;106512;-87
2022/04/17 06:48:50;;;;;;;0.70;0.70;;;;;;;6.78;54.66;101705.48;106467;1274;136864;-89
2022/04/17 06:51:42;;;;;;;0.70;0.70;;;;;;;6.86;54.58;101705.04;106704;1274;94785;-90
2022/04/17 06:54:10;;;;;;;0.70;0.70;;;;;;;6.99;54.44;101707.11;106555;1274;137890;-86
2022/04/17 06:57:00;;;;;;;0.60;0.60;;;;;;;7.09;54.05;101708.27;106704;1274;98402;-87
2022/04/17 06:59:32;;;;;;;0.60;0.60;;;;;;;7.14;53.98;101706.71;106282;1274;138047;-86
2022/04/17 07:02:00;;;;;;;0.80;0.80;;;;;;;7.29;53.74;101707.55;106287;1274;94998;-87
2022/04/17 07:04:28;;;;;;;0.60;0.60;;;;;;;7.41;53.46;101709.60;106254;1274;94923;-88
2022/04/17 07:07:37;;;;;;;0.70;0.70;;;;;;;7.45;53.19;101709.62;106116;1274;137704;-87
2022/04/17 07:10:30;;;;;;;0.70;0.70;;;;;;;7.42;53.20;101712.42;106185;1274;97934;-87
2022/04/17 07:13:00;;;;;;;0.70;0.70;;;;;;;7.36;53.29;101710.62;105894;1277;136401;-88
2022/04/17 07:16:28;;;;;;;0.70;0.70;;;;;;;7.31;53.58;101712.16;106211;1274;94303;-88
2022/04/17 07:18:59;;;;;;;0.70;0.70;;;;;;;7.40;53.36;101706.94;106484;1275;138155;-87
2022/04/17 07:21:55;;;;;;;0.70;0.70;;;;;;;7.53;52.74;101707.02;106446;1274;108040;-87
2022/04/17 07:24:27;;;;;;;0.70;0.70;;;;;;;7.58;52.80;101709.55;106273;1274;137661;-88
2022/04/17 07:26:58;;;;;;;0.70;0.70;;;;;;;7.60;52.64;101710.97;106004;1275;108325;-87
2022/04/17 07:29:26;;;;;;;0.60;0.60;;;;;;;7.68;52.66;101706.77;106306;1274;137672;-88
2022/04/17 07:31:54;;;;;;;0.60;0.60;;;;;;;7.74;52.92;101709.83;106313;1274;94712;-88
2022/04/17 07:35:01;;;;;;;0.60;0.60;;;;;;;7.81;52.27;101706.86;106013;1274;106012;-88
2022/04/17 07:38:12;;;;;;;0.80;0.80;;;;;;;7.94;51.99;101704.65;106002;1274;138926;-90
2022/04/17 07:41:24;;;;;;;0.60;0.60;;;;;;;8.04;51.87;101699.02;106696;1274;138014;-87
2022/04/17 07:43:55;;;;;;;0.60;0.60;;;;;;;8.21;51.24;101697.16;106044;1277;94694;-91
2022/04/17 07:46:23;;;;;;;0.60;0.60;;;;;;;8.33;51.13;101698.98;106156;1277;94360;-88
2022/04/17 07:48:52;;;;;;;0.70;0.70;;;;;;;8.54;50.74;101694.32;106066;1274;140068;-88
2022/04/17 07:51:21;;;;;;;0.60;0.60;;;;;;;8.84;50.20;101695.44;106223;1274;98274;-89
2022/04/17 07:53:51;;;;;;;0.50;0.50;;;;;;;9.08;49.18;101686.27;106001;1274;138277;-92
2022/04/17 07:56:23;;;;;;;0.50;0.50;;;;;;;9.34;48.32;101692.47;106067;1277;94317;-86
2022/04/17 07:58:52;;;;;;;0.50;0.50;;;;;;;9.39;48.12;101689.63;106146;1274;94234;-87
2022/04/17 08:01:23;;;;;;;0.50;0.50;;;;;;;9.45;48.45;101685.38;105975;1277;138008;-87
2022/04/17 08:03:54;;;;;;;0.50;0.50;;;;;;;9.47;47.85;101685.91;106303;1274;97550;-90
2022/04/17 08:06:25;;;;;;;0.50;0.50;;;;;;;9.32;47.55;101684.15;105974;1274;137842;-87
2022/04/17 08:08:55;;;;;;;0.50;0.50;;;;;;;9.19;47.47;101685.20;106301;1274;94374;-88
2022/04/17 08:11:51;;;;;;;0.50;0.50;;;;;;;9.17;48.13;101679.71;106103;1274;137672;-88
2022/04/17 08:14:40;;;;;;;0.50;0.50;;;;;;;9.27;48.21;101681.48;106258;1274;108041;-88
2022/04/17 08:17:10;;;;;;;0.50;0.50;;;;;;;9.26;48.64;101673.34;106446;1272;95977;-87
2022/04/17 08:19:52;;;;;;;;;;;;;;;;;;;;;
2022/04/17 08:22:22;;;;;;;0.50;0.50;;;;;;;9.52;48.42;101679.86;106111;1274;94442;-88
2022/04/17 08:24:53;;;;;;;0.40;0.40;;;;;;;9.56;47.84;101679.69;106101;1274;137431;-87
2022/04/17 08:27:26;;;;;;;0.50;0.50;;;;;;;9.70;48.00;101678.41;106368;1274;107952;-88
2022/04/17 08:30:01;;;;;;;0.50;0.40;;;;;;;9.82;47.71;101675.90;106324;1274;138286;-88
2022/04/17 08:32:33;;;;;;;0.60;0.60;;;;;;;9.87;47.12;101680.52;106572;1274;106836;-91
2022/04/17 08:35:08;;;;;;;0.50;0.40;;;;;;;9.98;47.02;101677.82;106475;1274;94744;-89
2022/04/17 08:37:40;;;;;;;0.50;0.40;;;;;;;10.17;46.97;101673.31;106354;1274;137710;-88
2022/04/17 08:40:12;;;;;;;0.50;0.40;;;;;;;10.34;46.04;101680.70;106599;1274;107102;-89
2022/04/17 08:42:56;;;;;;;0.50;0.40;;;;;;;10.52;45.26;101676.90;106249;1274;137727;-90
2022/04/17 08:45:29;;;;;;;0.50;0.40;;;;;;;10.60;45.32;101671.53;106369;1274;109942;-90
2022/04/17 08:48:43;;;;;;;0.50;0.40;;;;;;;10.63;45.38;101667.79;105969;1276;137859;-88
2022/04/17 08:51:13;;;;;;;0.50;0.40;;;;;;;10.81;45.08;101667.14;106313;1274;94581;-87
2022/04/17 08:53:48;;;;;;;0.50;0.40;;;;;;;10.93;44.97;101661.90;106139;1275;138719;-87
2022/04/17 08:56:22;;;;;;;0.40;0.40;;;;;;;11.08;44.70;101664.98;106428;1274;98421;-89
2022/04/17 08:58:54;;;;;;;0.50;0.40;;;;;;;11.28;43.82;101655.03;106180;1274;107808;-88
2022/04/17 09:01:23;;;;;;;0.40;0.40;;;;;;;11.46;43.22;101651.30;106125;1274;138681;-91
2022/04/17 09:03:54;;;;;;;0.40;0.30;;;;;;;11.51;42.64;101646.29;106378;1274;94247;-87
2022/04/17 09:06:31;;;;;;;0.40;0.40;;;;;;;11.70;42.93;101631.30;106014;1274;140181;-87
2022/04/17 09:09:05;;;;;;;0.40;0.40;;;;;;;12.57;41.18;101632.52;106082;1274;98863;-88
2022/04/17 09:11:40;;;;;;;0.50;0.50;;;;;;;13.76;39.14;101626.04;106096;1274;138587;-88
2022/04/17 09:14:20;;;;;;;0.40;0.30;;;;;;;15.56;37.31;101617.34;106094;1274;94804;-88
2022/04/17 09:17:32;;;;;;;0.40;0.20;;;;;;;17.86;35.28;101610.38;106207;1275;93747;-91
2022/04/17 09:20:05;;;;;;;0.40;0.20;;;;;;;19.86;31.29;101600.39;106318;1275;137552;-88
2022/04/17 09:22:54;;;;;;;0.40;0.10;;;;;;;21.37;28.94;101594.84;106397;1275;99456;-89
2022/04/17 09:25:28;;;;;;;0.40;0.10;;;;;;;22.65;26.23;101588.55;105987;1274;138075;-88
2022/04/17 09:27:57;;;;;;;0.40;0.10;;;;;;;23.21;24.27;101589.27;105932;1274;94197;-88
2022/04/17 09:30:35;;;;;;;0.40;0.00;;;;;;;23.67;24.02;101587.05;105962;1274;137740;-88
2022/04/17 09:33:09;;;;;;;0.40;0.10;;;;;;;23.30;23.51;101586.54;106213;1274;107336;-88
2022/04/17 09:35:40;;;;;;;0.40;0.10;;;;;;;21.74;24.78;101582.95;106093;1275;98079;-90
2022/04/17 09:38:09;;;;;;;0.40;0.10;;;;;;;21.75;25.08;101581.77;105805;1275;137598;-90
2022/04/17 09:40:38;;;;;;;0.40;0.10;;;;;;;22.89;24.25;101578.30;106044;1277;94199;-90
2022/04/17 09:43:15;;;;;;;0.40;0.10;;;;;;;24.02;23.66;101568.34;106342;1274;138133;-88
2022/04/17 09:46:01;;;;;;;0.40;0.10;;;;;;;24.58;21.97;101562.15;106419;1274;108758;-89
2022/04/17 09:48:49;;;;;;;0.40;0.00;;;;;;;24.73;21.04;101557.31;105960;1274;138331;-90
2022/04/17 09:51:34;;;;;;;0.40;0.10;;;;;;;24.18;20.60;101553.33;106150;1275;108262;-89
2022/04/17 09:54:06;;;;;;;0.40;0.10;;;;;;;24.40;20.61;101550.84;106355;1274;137475;-89
2022/04/17 09:56:37;;;;;;;0.40;0.10;;;;;;;25.29;19.97;101546.42;106236;1274;95234;-90
2022/04/17 09:59:26;;;;;;;0.40;0.10;;;;;;;26.15;19.95;101546.13;106294;1274;107369;-90
2022/04/17 10:02:05;;;;;;;0.40;0.00;;;;;;;27.11;18.37;101541.23;106208;1274;138907;-88
2022/04/17 10:04:36;;;;;;;0.40;0.10;;;;;;;27.58;18.24;101530.28;106376;1274;106930;-88
2022/04/17 10:07:25;;;;;;;0.40;0.00;;;;;;;28.45;17.22;101529.06;106264;1274;138241;-88
2022/04/17 10:09:54;;;;;;;0.40;0.00;;;;;;;29.39;16.34;101517.88;106099;1274;95025;-90
2022/04/17 10:12:22;;;;;;;0.40;0.00;;;;;;;28.80;15.57;101517.65;105871;1274;138130;-90
2022/04/17 10:15:28;;;;;;;0.40;0.00;;;;;;;26.53;16.94;101523.02;106140;1277;99497;-88
2022/04/17 10:18:00;;;;;;;0.40;0.00;;;;;;;24.16;18.55;101523.83;106013;1277;138263;-91
2022/04/17 10:20:30;;;;;;;0.40;0.00;;;;;;;22.66;19.95;101526.25;106102;1274;95512;-88
2022/04/17 10:23:03;;;;;;;0.40;0.10;;;;;;;21.46;20.93;101520.46;105991;1277;94217;-89
2022/04/17 10:25:38;;;;;;;0.40;0.10;;;;;;;22.40;20.53;101514.02;106252;1274;137762;-87
2022/04/17 10:28:08;;;;;;;0.40;0.00;;;;;;;23.88;19.43;101502.64;106417;1274;97589;-87
2022/04/17 10:31:14;;;;;;;0.40;0.10;;;;;;;23.49;19.25;101498.34;105880;1277;138371;-88
2022/04/17 10:34:17;;;;;;;0.40;0.10;;;;;;;21.64;20.16;101503.77;106073;1274;95068;-88
2022/04/17 10:37:24;;;;;;;0.40;0.10;;;;;;;20.28;21.60;101494.03;105992;1274;137939;-89
2022/04/17 10:39:57;;;;;;;0.40;0.20;;;;;;;19.68;22.25;101493.10;106090;1274;108782;-88
2022/04/17 10:42:52;;;;;;;0.40;0.10;;;;;;;21.35;21.29;101492.30;105804;1277;138368;-88
2022/04/17 10:45:22;;;;;;;0.40;0.10;;;;;;;22.72;19.78;101477.94;105890;1275;108543;-88
2022/04/17 10:48:09;;;;;;;0.40;0.10;;;;;;;21.82;20.76;101482.54;105907;1274;138362;-89
2022/04/17 10:51:12;;;;;;;0.40;0.10;;;;;;;21.49;20.71;101472.98;106459;1274;95279;-87
2022/04/17 10:54:23;;;;;;;0.40;0.10;;;;;;;20.38;21.44;101470.96;106151;1277;137033;-87
2022/04/17 10:57:00;;;;;;;0.40;0.10;;;;;;;19.60;22.69;101469.70;106463;1274;97038;-87
2022/04/17 10:59:34;;;;;;;0.40;0.10;;;;;;;18.87;23.65;101470.07;106208;1274;108718;-89
2022/04/17 11:02:10;;;;;;;0.40;0.10;;;;;;;18.24;24.12;101476.54;106099;1274;138902;-88
2022/04/17 11:04:54;;;;;;;0.40;0.10;;;;;;;17.56;24.30;101475.74;106499;1273;95237;-89
2022/04/17 11:07:31;;;;;;;0.40;0.20;;;;;;;17.04;25.15;101463.69;106529;1274;137853;-87
2022/04/17 11:10:25;;;;;;;0.40;0.20;;;;;;;16.76;24.09;101457.83;106318;1275;97960;-89
2022/04/17 11:12:55;;;;;;;0.40;0.20;;;;;;;16.16;24.37;101449.08;106285;1275;137920;-88
2022/04/17 11:15:29;;;;;;;0.40;0.20;;;;;;;15.76;25.60;101444.95;106519;1274;95137;-88
2022/04/17 11:18:06;;;;;;;0.40;0.20;;;;;;;15.64;25.70;101441.91;106208;1275;138765;-89
2022/04/17 11:20:42;;;;;;;0.40;0.20;;;;;;;15.55;27.01;101437.17;106201;1274;107428;-90
2022/04/17 11:23:12;;;;;;;0.40;0.20;;;;;;;15.44;27.44;101433.39;106313;1274;97295;-89
2022/04/17 11:25:50;;;;;;;0.40;0.20;;;;;;;15.23;26.94;101430.63;106022;1274;138039;-85
2022/04/17 11:28:37;;;;;;;0.40;0.30;;;;;;;14.72;26.69;101427.35;106304;1275;95198;-91
2022/04/17 11:31:05;;;;;;;0.40;0.20;;;;;;;14.33;27.51;101426.41;106424;1274;137256;-87
2022/04/17 11:33:46;;;;;;;0.40;0.20;;;;;;;14.29;27.92;101420.44;106523;1274;108921;-87
2022/04/17 11:36:54;;;;;;;0.40;0.20;;;;;;;14.25;27.64;101408.57;106186;1275;137230;-87
2022/04/17 11:40:27;;;;;;;0.40;0.20;;;;;;;14.17;28.26;101409.83;106144;1274;108423;-88
2022/04/17 11:43:18;;;;;;;0.40;0.20;;;;;;;14.18;28.68;101408.04;106165;1274;137218;-91
2022/04/17 11:46:09;;;;;;;0.40;0.30;;;;;;;14.01;28.09;101409.14;105980;1274;95159;-87
2022/04/17 11:48:54;;;;;;;0.40;0.20;;;;;;;13.82;28.62;101412.11;106126;1274;138376;-89
2022/04/17 11:51:30;;;;;;;0.40;0.30;;;;;;;13.61;27.62;101407.05;106119;1274;98257;-88
2022/04/17 11:54:33;;;;;;;0.40;0.30;;;;;;;13.38;27.53;101403.80;106487;1274;139785;-89
2022/04/17 11:57:08;;;;;;;0.40;0.30;;;;;;;13.33;27.69;101394.42;106927;1274;93952;-90
2022/04/17 12:00:27;;;;;;;0.40;0.30;;;;;;;13.31;27.99;101389.66;107050;1274;94460;-90
2022/04/17 12:03:13;;;;;;;0.40;0.30;;;;;;;13.35;29.04;101387.27;107085;1274;108795;-90
2022/04/17 12:06:04;;;;;;;0.40;0.30;;;;;;;13.43;28.00;101376.23;106972;1274;98460;-90
2022/04/17 12:08:47;;;;;;;0.40;0.40;;;;;;;13.46;27.82;101367.96;106835;1274;138922;-90
2022/04/17 12:11:59;;;;;;;0.40;0.30;;;;;;;13.36;28.94;101367.09;106326;1277;95145;-90
2022/04/17 12:14:53;;;;;;;0.40;0.30;;;;;;;13.22;29.11;101376.13;106599;1274;138273;-90
2022/04/17 12:18:04;;;;;;;0.40;0.30;;;;;;;13.16;28.95;101374.64;106373;1274;108625;-90
2022/04/17 12:20:39;;;;;;;0.40;0.30;;;;;;;13.15;29.06;101369.30;106727;1274;138466;-89
2022/04/17 12:23:29;;;;;;;0.40;0.30;;;;;;;13.16;29.02;101364.48;106800;1274;108984;-89
2022/04/17 12:26:36;;;;;;;0.40;0.30;;;;;;;13.16;28.96;101354.31;106576;1274;137980;-90
2022/04/17 12:29:14;;;;;;;0.40;0.30;;;;;;;13.12;29.20;101352.62;106904;1274;95303;-90
2022/04/17 12:32:03;;;;;;;0.40;0.30;;;;;;;13.19;29.16;101349.27;106992;1274;138320;-89
2022/04/17 12:35:14;;;;;;;0.40;0.30;;;;;;;13.40;28.85;101338.83;107103;1274;98419;-89
2022/04/17 12:41:26;;;;;;;0.40;0.30;;;;;;;13.60;28.82;101336.23;106630;1274;95143;-89
2022/04/17 12:44:06;;;;;;;0.40;0.30;;;;;;;13.60;27.99;101334.25;106362;1277;137370;-89
2022/04/17 12:47:09;;;;;;;0.40;0.30;;;;;;;13.62;27.84;101328.88;106644;1277;108439;-89
2022/04/17 12:50:11;;;;;;;0.40;0.30;;;;;;;13.62;27.09;101327.62;106620;1277;138525;-89